Latest Coastal Weather Observations for King Island Airport

IDT60701

Issued at 9:51 pm EDT Wednesday 10 February 2016 (issued every 10 minutes, with the page automatically refreshed every 10 minutes)

About coastal observations | Map of coastal stations | Coastal observations for TAS | Marine services | Other Formats
Station Details ID: 098017 Name: KING ISLAND AIRPORT Lat: -39.88 Lon: 143.88 Height: 37.0 m
Data from the previous 72 hours. | See also: Recent months at King Island Airport
Date/Time
EDT
Temp

°C
Wind Pressure Rain
since 9am
mm
Weather Cloud Vis
km
Sea
Height
m
Swell
Dir
 
Speed
knots
Gust
knots
hPa Trend Height
m
Period
s
Dir
10/09:30pm 17.3 SW 7 9 1016.3 - 0.0 - Cloudy 10 - - - -
10/09:00pm 17.0 SW 7 10 1016.2 - 0.0 - Mostly clear 10 - - - -
10/08:30pm 17.5 SW 9 12 1016.1 - 0.0 - Partly cloudy 10 - - - -
10/08:00pm 18.0 SW 10 13 1015.8 - 0.0 - Partly cloudy 10 - - - -
10/07:30pm 18.6 SW 11 15 1015.6 - 0.0 - Partly cloudy 10 - - - -
10/07:00pm 19.4 SW 11 17 1015.3 - 0.0 - Partly cloudy 10 - - - -
10/06:30pm 19.4 SW 15 18 1015.1 - 0.0 - Partly cloudy 10 - - - -
10/06:00pm 19.6 SW 12 16 1014.9 - 0.0 - Mostly clear 10 - - - -
10/05:30pm 19.8 WSW 13 18 1015.0 - 0.0 - Partly cloudy 10 - - - -
10/05:00pm 20.5 WSW 14 17 1014.9 - 0.0 - Partly cloudy 10 - - - -
10/04:30pm 19.6 WSW 12 17 1015.0 - 0.0 - Partly cloudy 10 - - - -
10/04:00pm 19.0 WSW 13 17 1015.2 - 0.0 - Partly cloudy 10 - - - -
10/03:30pm 19.8 WSW 11 16 1015.2 - 0.0 - Partly cloudy 10 - - - -
10/03:00pm 19.7 W 12 17 1015.4 - 0.0 - Cloudy 10 - - - -
10/02:30pm 20.1 W 11 15 1015.5 - 0.0 - Partly cloudy 10 - - - -
10/02:00pm 19.5 WSW 9 14 1015.6 - 0.0 - Partly cloudy 10 - - - -
10/01:30pm 19.2 WSW 9 14 1015.8 - 0.0 - Partly cloudy 10 - - - -
10/01:00pm 19.7 W 9 15 1016.0 - 0.0 - Partly cloudy 10 - - - -
10/12:30pm 19.3 W 8 12 1016.2 - 0.0 - Partly cloudy 10 - - - -
10/12:00pm 18.7 W 8 10 1016.4 - 0.0 - Cloudy 10 - - - -
10/11:30am 19.0 WSW 8 14 1016.5 - 0.0 - Cloudy 10 - - - -
10/11:00am 18.3 WSW 7 10 1016.5 - 0.0 - Cloudy 10 - - - -
10/10:30am 18.1 SW 9 13 1016.6 - 0.0 - Cloudy 10 - - - -
10/10:00am 18.5 SW 9 14 1016.5 - 0.0 - Partly cloudy 10 - - - -
10/09:30am 17.8 SW 9 13 1016.4 - 0.0 - - 10 - - - -
10/09:00am 17.6 SW 12 16 1016.5 - 0.0 - Partly cloudy 10 - - - -
10/08:30am 17.0 SW 9 12 1016.2 - 0.0 - Cloudy 10 - - - -
10/08:00am 16.1 SW 6 8 1015.9 - 0.0 - Partly cloudy 10 - - - -
10/07:30am 12.7 CALM 0 0 1015.6 - 0.0 - Cloudy 10 - - - -
10/07:00am 12.5 SW 1 4 1015.5 - 0.0 - Partly cloudy 10 - - - -
10/06:30am 11.5 CALM 0 0 1015.4 - 0.0 - Partly cloudy 10 - - - -
10/06:00am 12.1 SSW 1 4 1015.6 - 0.0 - Partly cloudy 10 - - - -
10/05:30am 13.8 SSW 3 5 1015.5 - 0.0 - Partly cloudy 10 - - - -
10/05:00am 13.9 CALM 0 0 1015.5 - 0.0 - Cloudy 10 - - - -
10/04:30am 14.0 CALM 0 0 1015.5 - 0.0 - Partly cloudy 10 - - - -
10/04:00am 14.0 CALM 0 0 1015.7 - 0.0 - Partly cloudy 10 - - - -
10/03:30am 15.0 SW 1 4 1015.9 - 0.0 - Partly cloudy 10 - - - -
10/03:00am 13.3 CALM 0 0 1016.0 - 0.0 - Mostly cloudy 10 - - - -
10/02:30am 14.6 S 1 4 1016.2 - 0.0 - Cloudy 10 - - - -
10/02:00am 14.2 CALM 0 0 1016.6 - 0.0 - Cloudy 10 - - - -
10/01:30am 14.1 SSW 2 4 1016.8 - 0.0 - Partly cloudy 10 - - - -
10/01:00am 15.0 SSW 4 5 1017.2 - 0.0 - Partly cloudy 10 - - - -
10/12:30am 15.3 SW 4 5 1017.5 - 0.0 - Partly cloudy 10 - - - -
10/12:00am 15.6 SW 5 6 1017.5 - 0.0 - Partly cloudy 10 - - - -
 
Date/Time
EDT
Temp

°C
Wind Pressure Rain
since 9am
mm
Weather Cloud Vis
km
Sea
Height
m
Swell
Dir
 
Speed
knots
Gust
knots
hPa Trend Height
m
Period
s
Dir
09/11:30pm 15.8 SSW 5 6 1017.7 - 0.0 - Partly cloudy 10 - - - -
09/11:00pm 16.2 SSW 5 7 1017.8 - 0.0 - Partly cloudy 10 - - - -
09/10:30pm 16.3 SSW 7 9 1018.1 - 0.0 - Partly cloudy 10 - - - -
09/10:00pm 16.6 SSW 9 13 1018.4 - 0.0 - Partly cloudy 10 - - - -
09/09:30pm 15.9 SSW 7 8 1018.2 - 0.0 - Partly cloudy 10 - - - -
09/09:00pm 16.0 SSW 6 8 1018.0 - 0.0 - - 10 - - - -
09/08:30pm 16.6 SSW 8 10 1018.1 - 0.0 - - 10 - - - -
09/08:00pm 17.4 SSW 12 16 1018.2 - 0.0 - - 10 - - - -
09/07:30pm 18.1 SSW 13 17 1018.0 - 0.0 - - 10 - - - -
09/07:00pm 18.4 SSW 14 17 1018.1 - 0.0 - - 10 - - - -
09/06:30pm 18.8 SSW 12 16 1018.2 - 0.0 - - 10 - - - -
09/06:00pm 19.1 SSW 14 18 1018.5 - 0.0 - - 10 - - - -
09/05:30pm 19.7 SSW 15 19 1018.6 - 0.0 - - 10 - - - -
09/05:00pm 19.7 SW 13 16 1018.9 - 0.0 - - 10 - - - -
09/04:30pm 20.1 SW 13 17 1019.3 - 0.0 - - 10 - - - -
09/04:00pm 20.1 SW 12 16 1019.4 - 0.0 - - 10 - - - -
09/03:30pm 20.2 SW 11 15 1019.7 - 0.0 - - 10 - - - -
09/03:00pm 20.9 SW 11 15 1019.9 - 0.0 - - 10 - - - -
09/02:30pm 20.3 SW 11 15 1020.2 - 0.0 - - 10 - - - -
09/02:00pm 20.1 SW 12 17 1020.5 - 0.0 - - 10 - - - -
09/01:30pm 20.3 SW 13 17 1020.8 - 0.0 - - 10 - - - -
09/01:00pm 20.3 SW 12 17 1021.0 - 0.0 - - 10 - - - -
09/12:30pm 20.5 SSW 13 17 1021.2 - 0.0 - - 10 - - - -
09/12:00pm 20.7 SSW 11 15 1021.5 - 0.0 - Mostly clear 10 - - - -
09/11:30am 19.5 SW 9 14 1021.6 - 0.0 - Partly cloudy 10 - - - -
09/11:00am 19.1 SSW 10 14 1021.8 - 0.0 - Partly cloudy 10 - - - -
09/10:30am 18.8 SSW 10 14 1021.9 - 0.0 - Partly cloudy 10 - - - -
09/10:00am 19.3 S 7 9 1021.9 - 0.0 - Partly cloudy 10 - - - -
09/09:30am 18.7 S 8 11 1022.2 - 0.0 - Partly cloudy 10 - - - -
09/09:00am 17.9 S 9 12 1022.3 - 0.0 - Mostly clear 10 - - - -
09/08:30am 17.8 S 7 10 1022.2 - 0.0 - Partly cloudy 10 - - - -
09/08:00am 17.8 S 5 8 1022.1 - 0.0 - Cloudy 10 - - - -
09/07:30am 16.4 S 6 9 1022.1 - 0.0 - Cloudy 10 - - - -
09/07:00am 15.1 SSE 6 8 1021.9 - 0.0 - Cloudy 10 - - - -
09/06:30am 15.0 SSE 5 7 1021.8 - 0.0 - Cloudy 10 - - - -
09/06:00am 13.0 CALM 0 0 1021.7 - 0.0 - Mostly cloudy 10 - - - -
09/05:30am 12.7 CALM 0 0 1021.5 - 0.0 - Cloudy 10 - - - -
09/05:00am 13.2 S 3 4 1021.4 - 0.0 - Partly cloudy 10 - - - -
09/04:30am 13.7 S 4 5 1021.4 - 0.0 - Partly cloudy 10 - - - -
09/04:00am 13.7 S 5 6 1021.6 - 0.0 - Partly cloudy 10 - - - -
09/03:30am 14.0 S 4 6 1021.9 - 0.0 - Partly cloudy 10 - - - -
09/03:00am 14.0 SSE 4 5 1022.1 - 0.0 - Mostly clear 10 - - - -
09/02:30am 14.8 S 5 6 1022.3 - 0.0 - Partly cloudy 10 - - - -
09/02:00am 15.7 S 5 7 1022.5 - 0.0 - Partly cloudy 10 - - - -
09/01:30am 16.4 S 6 10 1022.8 - 0.0 - Cloudy 10 - - - -
09/01:00am 16.6 SSW 9 13 1023.0 - 0.0 - Cloudy 10 - - - -
09/12:30am 16.8 S 7 13 1023.1 - 0.0 - Cloudy 10 - - - -
09/12:00am 16.6 S 7 11 1023.3 - 0.0 - Mostly cloudy 10 - - - -
 
Date/Time
EDT
Temp

°C
Wind Pressure Rain
since 9am
mm
Weather Cloud Vis
km
Sea
Height
m
Swell
Dir
 
Speed
knots
Gust
knots
hPa Trend Height
m
Period
s
Dir
08/11:30pm 16.4 SSW 9 14 1023.5 - 0.0 - Partly cloudy 10 - - - -
08/11:00pm 16.9 SSW 11 16 1023.6 - 0.0 - Cloudy 10 - - - -
08/10:30pm 17.2 SSW 9 14 1023.6 - 0.0 - Cloudy 10 - - - -
08/10:00pm 17.2 SSW 11 15 1023.7 - 0.0 - Cloudy 10 - - - -
08/09:30pm 17.1 SSW 11 18 1023.5 - 0.0 - Cloudy 10 - - - -
08/09:00pm 17.1 S 10 15 1023.3 - 0.0 - Cloudy 10 - - - -
08/08:30pm 17.0 SSW 11 18 1023.2 - 0.0 - Cloudy 10 - - - -
08/08:00pm 17.5 SSW 12 17 1023.0 - 0.0 - Cloudy 10 - - - -
08/07:30pm 17.7 SSW 13 19 1022.8 - 0.0 - Partly cloudy 10 - - - -
08/07:00pm 18.0 SSW 14 21 1022.7 - 0.0 - Partly cloudy 10 - - - -
08/06:30pm 18.2 SSW 15 22 1022.6 - 0.0 - Partly cloudy 10 - - - -
08/06:00pm 18.6 SSW 15 21 1022.6 - 0.0 - Partly cloudy 10 - - - -
08/05:30pm 18.9 SW 15 19 1022.5 - 0.0 - Partly cloudy 10 - - - -
08/05:00pm 19.0 SW 15 19 1022.5 - 0.0 - Partly cloudy 10 - - - -
08/04:30pm 19.3 SW 15 20 1022.5 - 0.0 - Partly cloudy 10 - - - -
08/04:00pm 19.4 SW 15 21 1022.6 - 0.0 - Partly cloudy 10 - - - -
08/03:30pm 20.5 SW 16 20 1022.6 - 0.0 - Partly cloudy 10 - - - -
08/03:00pm 19.7 SW 14 20 1022.6 - 0.0 - Cloudy 10 - - - -
08/02:30pm 20.7 SW 15 21 1022.7 - 0.0 - Partly cloudy 10 - - - -
08/02:00pm 20.2 SW 16 19 1022.8 - 0.0 - Partly cloudy 10 - - - -
08/01:30pm 19.5 SW 12 17 1023.0 - 0.0 - Partly cloudy 10 - - - -
08/01:00pm 20.1 SW 13 21 1022.9 - 0.0 - Partly cloudy 10 - - - -
08/12:30pm 20.0 SW 15 18 1022.9 - 0.0 - Partly cloudy 10 - - - -
08/12:00pm 20.2 SW 14 18 1023.1 - 0.0 - Cloudy 10 - - - -
08/11:30am 19.9 SSW 13 20 1023.0 - 0.0 - Partly cloudy 10 - - - -
08/11:00am 19.0 SSW 14 19 1023.0 - 0.0 - Partly cloudy 10 - - - -
08/10:30am 18.4 SW 13 17 1023.1 - 0.0 - Partly cloudy 10 - - - -
08/10:00am 19.7 SSW 13 17 1022.9 - 0.0 - Partly cloudy 10 - - - -
08/09:30am 17.8 SSW 12 16 1022.8 - 0.0 - Partly cloudy 10 - - - -
08/09:00am 18.6 SSW 12 16 1022.7 - 0.0 - Mostly cloudy 10 - - - -
08/08:30am 18.0 SW 10 17 1022.4 - 0.0 - Partly cloudy 10 - - - -
08/08:00am 17.3 SW 9 11 1022.1 - 0.0 - Cloudy 10 - - - -
08/07:30am 17.0 SW 7 9 1021.6 - 0.0 - Partly cloudy 10 - - - -
08/07:00am 16.9 SW 9 12 1021.5 - 0.0 - Cloudy 10 - - - -
08/06:30am 17.0 SW 11 14 1021.1 - 0.0 - Cloudy 10 - - - -
08/06:00am 17.1 SSW 9 14 1020.7 - 0.0 - Cloudy 10 - - - -
08/05:30am 17.2 SW 9 14 1020.5 - 0.0 - Cloudy 10 - - - -
08/05:00am 17.3 SW 11 14 1020.1 - 0.0 - Cloudy 10 - - - -
08/04:30am 17.4 SSW 10 14 1020.1 - 0.0 - Cloudy 10 - - - -
08/04:00am 17.4 SSW 10 15 1020.1 - 0.0 - Partly cloudy 10 - - - -
08/03:30am 17.5 SW 11 15 1020.1 - 0.0 - Partly cloudy 10 - - - -
08/03:00am 17.8 SW 11 15 1020.1 - 0.0 - Mostly cloudy 10 - - - -
08/02:30am 17.9 SSW 10 14 1020.2 - 0.0 - Cloudy 10 - - - -
08/02:00am 18.0 SW 10 14 1020.3 - 0.0 - Partly cloudy 10 - - - -
08/01:30am 18.0 SSW 12 15 1020.1 - 0.0 - Cloudy 10 - - - -
08/01:00am 18.2 SSW 11 14 1020.1 - 0.0 - Cloudy 10 - - - -
08/12:30am 18.2 SW 10 15 1020.0 - 0.0 - Partly cloudy 10 - - - -
08/12:00am 18.2 SSW 11 15 1019.9 - 0.0 - Cloudy 10 - - - -
 
Date/Time
EDT
Temp

°C
Wind Pressure Rain
since 9am
mm
Weather Cloud Vis
km
Sea
Height
m
Swell
Dir
 
Speed
knots
Gust
knots
hPa Trend Height
m
Period
s
Dir
07/11:30pm 18.3 SSW 11 14 1019.9 - 0.0 - Partly cloudy 10 - - - -
07/11:25pm 18.3 SSW 12 16 1019.8 - 0.0 - Partly cloudy 10 - - - -
07/11:00pm 18.3 SSW 13 18 1019.7 - 0.0 - Partly cloudy 10 - - - -
07/10:30pm 18.3 SSW 13 16 1019.6 - 0.0 - Partly cloudy 10 - - - -
07/10:00pm 18.3 SSW 13 18 1019.5 - 0.0 - Partly cloudy 10 - - - -

Other Formats:

Comma delimited format used in spreadsheet applications
http://www.bom.gov.au/fwo/IDT60701/IDT60701.94850.axf

JavaScript Object Notation format (JSON) in row-major order
http://www.bom.gov.au/fwo/IDT60701/IDT60701.94850.json